sensor_id;sensor_type;location;lat;lon;timestamp;pressure;altitude;pressure_sealevel;temperature;humidity
9307;BME280;4691;47.612;7.610;2022-12-18T00:01:48;98821.97;;;-1.38;100.00
9307;BME280;4691;47.612;7.610;2022-12-18T00:04:22;98825.44;;;-1.38;100.00
9307;BME280;4691;47.612;7.610;2022-12-18T00:06:47;98822.84;;;-1.39;100.00
9307;BME280;4691;47.612;7.610;2022-12-18T00:09:14;98829.00;;;-1.39;100.00
9307;BME280;4691;47.612;7.610;2022-12-18T00:11:39;98840.22;;;-1.34;100.00
9307;BME280;4691;47.612;7.610;2022-12-18T00:14:05;98847.25;;;-1.36;100.00
9307;BME280;4691;47.612;7.610;2022-12-18T00:16:30;98839.53;;;-1.42;100.00
9307;BME280;4691;47.612;7.610;2022-12-18T00:18:58;98841.09;;;-1.35;100.00
9307;BME280;4691;47.612;7.610;2022-12-18T00:21:24;98819.34;;;-1.38;100.00
9307;BME280;4691;47.612;7.610;2022-12-18T00:23:50;98810.66;;;-1.40;100.00
9307;BME280;4691;47.612;7.610;2022-12-18T00:26:21;98801.22;;;-1.46;100.00
9307;BME280;4691;47.612;7.610;2022-12-18T00:28:47;98811.59;;;-1.43;100.00
9307;BME280;4691;47.612;7.610;2022-12-18T00:31:19;98816.97;;;-1.47;100.00
9307;BME280;4691;47.612;7.610;2022-12-18T00:33:45;98825.94;;;-1.55;100.00
9307;BME280;4691;47.612;7.610;2022-12-18T00:36:14;98832.09;;;-1.56;100.00
9307;BME280;4691;47.612;7.610;2022-12-18T00:38:40;98832.84;;;-1.52;100.00
9307;BME280;4691;47.612;7.610;2022-12-18T00:41:07;98829.44;;;-1.54;100.00
9307;BME280;4691;47.612;7.610;2022-12-18T00:43:32;98835.53;;;-1.54;100.00
9307;BME280;4691;47.612;7.610;2022-12-18T00:45:58;98827.59;;;-1.52;100.00
9307;BME280;4691;47.612;7.610;2022-12-18T00:48:23;98833.56;;;-1.47;100.00
9307;BME280;4691;47.612;7.610;2022-12-18T00:50:49;98829.44;;;-1.54;100.00
9307;BME280;4691;47.612;7.610;2022-12-18T00:53:15;98816.44;;;-1.59;100.00
9307;BME280;4691;47.612;7.610;2022-12-18T00:55:41;98820.84;;;-1.59;100.00
9307;BME280;4691;47.612;7.610;2022-12-18T00:58:07;98834.06;;;-1.64;100.00
9307;BME280;4691;47.612;7.610;2022-12-18T01:00:32;98832.34;;;-1.65;100.00
9307;BME280;4691;47.612;7.610;2022-12-18T01:02:58;98836.72;;;-1.65;100.00
9307;BME280;4691;47.612;7.610;2022-12-18T01:05:24;98848.00;;;-1.62;100.00
9307;BME280;4691;47.612;7.610;2022-12-18T01:07:49;98848.91;;;-1.63;100.00
9307;BME280;4691;47.612;7.610;2022-12-18T01:10:14;98831.53;;;-1.67;100.00
9307;BME280;4691;47.612;7.610;2022-12-18T01:12:40;98841.22;;;-1.69;100.00
9307;BME280;4691;47.612;7.610;2022-12-18T01:15:13;98841.16;;;-1.67;100.00
9307;BME280;4691;47.612;7.610;2022-12-18T01:17:40;98842.25;;;-1.74;100.00
9307;BME280;4691;47.612;7.610;2022-12-18T01:20:06;98844.03;;;-1.77;100.00
9307;BME280;4691;47.612;7.610;2022-12-18T01:22:32;98855.19;;;-1.70;100.00
9307;BME280;4691;47.612;7.610;2022-12-18T01:24:57;98866.59;;;-1.71;100.00
9307;BME280;4691;47.612;7.610;2022-12-18T01:27:22;98856.84;;;-1.66;100.00
9307;BME280;4691;47.612;7.610;2022-12-18T01:29:49;98859.56;;;-1.69;100.00
9307;BME280;4691;47.612;7.610;2022-12-18T01:32:14;98855.19;;;-1.68;100.00
9307;BME280;4691;47.612;7.610;2022-12-18T01:34:39;98850.91;;;-1.72;100.00
9307;BME280;4691;47.612;7.610;2022-12-18T01:37:05;98850.84;;;-1.69;100.00
9307;BME280;4691;47.612;7.610;2022-12-18T01:39:32;98859.69;;;-1.73;100.00
9307;BME280;4691;47.612;7.610;2022-12-18T01:41:59;98859.03;;;-1.82;100.00
9307;BME280;4691;47.612;7.610;2022-12-18T01:47:15;98858.03;;;-1.78;100.00
9307;BME280;4691;47.612;7.610;2022-12-18T01:49:43;98850.13;;;-1.74;100.00
9307;BME280;4691;47.612;7.610;2022-12-18T01:52:08;98851.84;;;-1.75;100.00
9307;BME280;4691;47.612;7.610;2022-12-18T01:54:34;98860.59;;;-1.74;100.00
9307;BME280;4691;47.612;7.610;2022-12-18T01:56:59;98854.34;;;-1.70;100.00
9307;BME280;4691;47.612;7.610;2022-12-18T01:59:26;98847.56;;;-1.78;100.00
9307;BME280;4691;47.612;7.610;2022-12-18T02:01:52;98844.03;;;-1.77;100.00
9307;BME280;4691;47.612;7.610;2022-12-18T02:04:22;98857.81;;;-1.70;100.00
9307;BME280;4691;47.612;7.610;2022-12-18T02:06:55;98859.69;;;-1.73;100.00
9307;BME280;4691;47.612;7.610;2022-12-18T02:09:28;98852.78;;;-1.78;100.00
9307;BME280;4691;47.612;7.610;2022-12-18T02:12:18;98844.13;;;-1.80;100.00
9307;BME280;4691;47.612;7.610;2022-12-18T02:17:19;98842.09;;;-1.70;100.00
9307;BME280;4691;47.612;7.610;2022-12-18T02:22:37;98824.75;;;-1.74;100.00
9307;BME280;4691;47.612;7.610;2022-12-18T02:27:41;98831.66;;;-1.71;100.00
9307;BME280;4691;47.612;7.610;2022-12-18T02:30:10;98828.44;;;-1.81;100.00
9307;BME280;4691;47.612;7.610;2022-12-18T02:32:46;98840.69;;;-1.82;100.00
9307;BME280;4691;47.612;7.610;2022-12-18T02:35:15;98828.56;;;-1.86;100.00
9307;BME280;4691;47.612;7.610;2022-12-18T02:37:43;98825.19;;;-1.91;100.00
9307;BME280;4691;47.612;7.610;2022-12-18T02:40:11;98846.50;;;-2.37;100.00
9307;BME280;4691;47.612;7.610;2022-12-18T02:42:38;98860.69;;;-3.21;100.00
9307;BME280;4691;47.612;7.610;2022-12-18T02:45:04;98866.09;;;-3.72;100.00
9307;BME280;4691;47.612;7.610;2022-12-18T02:47:32;98858.44;;;-3.83;100.00
9307;BME280;4691;47.612;7.610;2022-12-18T02:52:55;98844.34;;;-4.19;100.00
9307;BME280;4691;47.612;7.610;2022-12-18T02:58:27;98827.19;;;-4.85;100.00
9307;BME280;4691;47.612;7.610;2022-12-18T03:00:58;98823.75;;;-4.89;100.00
9307;BME280;4691;47.612;7.610;2022-12-18T03:03:34;98819.63;;;-5.02;100.00
9307;BME280;4691;47.612;7.610;2022-12-18T03:06:12;98801.38;;;-5.04;100.00
9307;BME280;4691;47.612;7.610;2022-12-18T03:08:43;98798.09;;;-5.16;100.00
9307;BME280;4691;47.612;7.610;2022-12-18T03:11:11;98804.34;;;-5.27;100.00
9307;BME280;4691;47.612;7.610;2022-12-18T03:13:50;98783.56;;;-5.33;100.00
9307;BME280;4691;47.612;7.610;2022-12-18T03:19:37;98700.50;;;-5.54;100.00
9307;BME280;4691;47.612;7.610;2022-12-18T03:22:05;98714.56;;;-5.66;100.00
9307;BME280;4691;47.612;7.610;2022-12-18T03:24:33;98697.84;;;-5.53;100.00
9307;BME280;4691;47.612;7.610;2022-12-18T03:27:01;98698.06;;;-5.65;100.00
9307;BME280;4691;47.612;7.610;2022-12-18T03:29:34;98707.59;;;-5.65;100.00
9307;BME280;4691;47.612;7.610;2022-12-18T03:32:12;98722.53;;;-5.78;100.00
9307;BME280;4691;47.612;7.610;2022-12-18T03:34:41;98732.97;;;-5.78;100.00
9307;BME280;4691;47.612;7.610;2022-12-18T03:37:08;98732.84;;;-5.69;100.00
9307;BME280;4691;47.612;7.610;2022-12-18T03:39:34;98751.50;;;-5.98;100.00
9307;BME280;4691;47.612;7.610;2022-12-18T03:42:28;98761.94;;;-5.98;100.00
9307;BME280;4691;47.612;7.610;2022-12-18T03:45:03;98776.53;;;-5.89;100.00
9307;BME280;4691;47.612;7.610;2022-12-18T03:50:13;98809.78;;;-6.08;100.00
9307;BME280;4691;47.612;7.610;2022-12-18T03:55:13;98840.13;;;-6.06;100.00
9307;BME280;4691;47.612;7.610;2022-12-18T03:57:41;98862.78;;;-6.16;100.00
9307;BME280;4691;47.612;7.610;2022-12-18T04:00:10;98887.09;;;-6.20;100.00
9307;BME280;4691;47.612;7.610;2022-12-18T04:02:38;98894.06;;;-6.22;100.00
9307;BME280;4691;47.612;7.610;2022-12-18T04:05:07;98923.56;;;-6.20;100.00
9307;BME280;4691;47.612;7.610;2022-12-18T04:07:33;98928.75;;;-6.20;100.00
9307;BME280;4691;47.612;7.610;2022-12-18T04:10:01;98948.72;;;-6.19;100.00
9307;BME280;4691;47.612;7.610;2022-12-18T04:12:28;99012.03;;;-6.14;100.00
9307;BME280;4691;47.612;7.610;2022-12-18T04:14:54;99047.66;;;-6.22;100.00
9307;BME280;4691;47.612;7.610;2022-12-18T04:17:20;99076.41;;;-6.43;100.00
9307;BME280;4691;47.612;7.610;2022-12-18T04:19:46;99124.91;;;-6.27;100.00
9307;BME280;4691;47.612;7.610;2022-12-18T04:22:11;99186.50;;;-6.24;100.00
9307;BME280;4691;47.612;7.610;2022-12-18T04:24:37;99229.91;;;-6.32;100.00
9307;BME280;4691;47.612;7.610;2022-12-18T04:27:03;99282.81;;;-6.26;100.00
9307;BME280;4691;47.612;7.610;2022-12-18T04:29:28;99336.63;;;-6.31;100.00
9307;BME280;4691;47.612;7.610;2022-12-18T04:31:53;99429.47;;;-6.21;100.00
9307;BME280;4691;47.612;7.610;2022-12-18T04:34:19;99456.38;;;-6.23;100.00
9307;BME280;4691;47.612;7.610;2022-12-18T04:36:44;99484.13;;;-6.30;100.00
9307;BME280;4691;47.612;7.610;2022-12-18T04:39:10;99508.44;;;-6.25;100.00
9307;BME280;4691;47.612;7.610;2022-12-18T04:41:35;99537.94;;;-6.20;100.00
9307;BME280;4691;47.612;7.610;2022-12-18T04:44:01;99569.19;;;-6.17;100.00
9307;BME280;4691;47.612;7.610;2022-12-18T04:46:26;99592.63;;;-6.18;100.00
9307;BME280;4691;47.612;7.610;2022-12-18T04:48:51;99625.63;;;-6.19;100.00
9307;BME280;4691;47.612;7.610;2022-12-18T04:51:17;99643.75;;;-6.37;100.00
9307;BME280;4691;47.612;7.610;2022-12-18T04:53:42;99667.19;;;-6.40;100.00
9307;BME280;4691;47.612;7.610;2022-12-18T04:56:10;99701.06;;;-6.25;100.00
9307;BME280;4691;47.612;7.610;2022-12-18T04:58:37;99714.09;;;-6.25;100.00
9307;BME280;4691;47.612;7.610;2022-12-18T05:01:02;99727.09;;;-6.34;100.00
9307;BME280;4691;47.612;7.610;2022-12-18T05:03:28;99742.66;;;-6.43;100.00
9307;BME280;4691;47.612;7.610;2022-12-18T05:05:53;99754.78;;;-6.47;100.00
9307;BME280;4691;47.612;7.610;2022-12-18T05:08:19;99775.59;;;-6.42;100.00
9307;BME280;4691;47.612;7.610;2022-12-18T05:10:44;99781.69;;;-6.40;100.00
9307;BME280;4691;47.612;7.610;2022-12-18T05:13:09;99793.75;;;-6.56;100.00
9307;BME280;4691;47.612;7.610;2022-12-18T05:15:35;99804.19;;;-6.51;100.00
9307;BME280;4691;47.612;7.610;2022-12-18T05:18:01;99825.06;;;-6.44;100.00
9307;BME280;4691;47.612;7.610;2022-12-18T05:20:27;99822.44;;;-6.45;100.00
9307;BME280;4691;47.612;7.610;2022-12-18T05:22:53;99831.81;;;-6.72;100.00
9307;BME280;4691;47.612;7.610;2022-12-18T05:25:19;99851.81;;;-6.65;100.00
9307;BME280;4691;47.612;7.610;2022-12-18T05:27:45;99868.41;;;-6.52;100.00
9307;BME280;4691;47.612;7.610;2022-12-18T05:30:11;99871.81;;;-6.56;100.00
9307;BME280;4691;47.612;7.610;2022-12-18T05:32:36;99884.84;;;-6.54;100.00
9307;BME280;4691;47.612;7.610;2022-12-18T05:35:02;99889.97;;;-6.64;100.00
9307;BME280;4691;47.612;7.610;2022-12-18T05:37:27;99894.50;;;-6.38;100.00
9307;BME280;4691;47.612;7.610;2022-12-18T05:39:53;99888.38;;;-6.48;100.00
9307;BME280;4691;47.612;7.610;2022-12-18T05:42:18;99895.19;;;-6.61;100.00
9307;BME280;4691;47.612;7.610;2022-12-18T05:44:43;99884.75;;;-6.67;100.00
9307;BME280;4691;47.612;7.610;2022-12-18T05:47:09;99884.56;;;-6.88;100.00
9307;BME280;4691;47.612;7.610;2022-12-18T05:49:34;99903.69;;;-6.83;100.00
9307;BME280;4691;47.612;7.610;2022-12-18T05:52:00;99910.59;;;-6.88;100.00
9307;BME280;4691;47.612;7.610;2022-12-18T05:54:29;99915.78;;;-6.88;100.00
9307;BME280;4691;47.612;7.610;2022-12-18T05:56:54;99920.00;;;-6.98;100.00
9307;BME280;4691;47.612;7.610;2022-12-18T05:59:19;99925.19;;;-6.99;100.00
9307;BME280;4691;47.612;7.610;2022-12-18T06:01:45;99939.06;;;-6.99;100.00
9307;BME280;4691;47.612;7.610;2022-12-18T06:04:11;99944.22;;;-7.02;100.00
9307;BME280;4691;47.612;7.610;2022-12-18T06:06:36;99932.97;;;-7.03;100.00
9307;BME280;4691;47.612;7.610;2022-12-18T06:09:03;99934.66;;;-7.05;100.00
9307;BME280;4691;47.612;7.610;2022-12-18T06:11:34;99945.19;;;-6.95;100.00
9307;BME280;4691;47.612;7.610;2022-12-18T06:13:59;99946.13;;;-6.87;100.00
9307;BME280;4691;47.612;7.610;2022-12-18T06:16:26;99953.16;;;-6.77;100.00
9307;BME280;4691;47.612;7.610;2022-12-18T06:18:51;99961.00;;;-6.74;100.00
9307;BME280;4691;47.612;7.610;2022-12-18T06:21:17;99952.34;;;-6.73;100.00
9307;BME280;4691;47.612;7.610;2022-12-18T06:23:42;99954.88;;;-6.81;100.00
9307;BME280;4691;47.612;7.610;2022-12-18T06:26:10;99964.53;;;-6.70;100.00
9307;BME280;4691;47.612;7.610;2022-12-18T06:28:36;99968.81;;;-6.71;100.00
9307;BME280;4691;47.612;7.610;2022-12-18T06:31:03;99968.84;;;-6.72;100.00
9307;BME280;4691;47.612;7.610;2022-12-18T06:33:28;99970.59;;;-6.68;100.00
9307;BME280;4691;47.612;7.610;2022-12-18T06:35:54;99974.84;;;-6.78;100.00
9307;BME280;4691;47.612;7.610;2022-12-18T06:38:24;99978.28;;;-6.79;100.00
9307;BME280;4691;47.612;7.610;2022-12-18T06:40:49;99973.06;;;-6.82;100.00
9307;BME280;4691;47.612;7.610;2022-12-18T06:43:14;99984.31;;;-6.85;100.00
9307;BME280;4691;47.612;7.610;2022-12-18T06:45:39;99983.50;;;-6.79;100.00
9307;BME280;4691;47.612;7.610;2022-12-18T06:48:05;99991.31;;;-6.76;100.00
9307;BME280;4691;47.612;7.610;2022-12-18T06:50:30;99990.47;;;-6.75;100.00
9307;BME280;4691;47.612;7.610;2022-12-18T06:52:56;99992.06;;;-6.86;100.00
9307;BME280;4691;47.612;7.610;2022-12-18T06:55:21;100012.97;;;-6.80;100.00
9307;BME280;4691;47.612;7.610;2022-12-18T06:57:46;100023.34;;;-6.83;100.00
9307;BME280;4691;47.612;7.610;2022-12-18T07:00:12;100054.66;;;-6.74;100.00
9307;BME280;4691;47.612;7.610;2022-12-18T07:02:37;100067.75;;;-6.68;100.00
9307;BME280;4691;47.612;7.610;2022-12-18T07:05:03;100073.03;;;-6.60;100.00
9307;BME280;4691;47.612;7.610;2022-12-18T07:07:28;100078.13;;;-6.69;100.00
9307;BME280;4691;47.612;7.610;2022-12-18T07:09:53;100092.22;;;-6.52;100.00
9307;BME280;4691;47.612;7.610;2022-12-18T07:12:19;100082.69;;;-6.48;100.00
9307;BME280;4691;47.612;7.610;2022-12-18T07:14:44;100080.91;;;-6.52;100.00
9307;BME280;4691;47.612;7.610;2022-12-18T07:17:12;100071.38;;;-6.55;100.00
9307;BME280;4691;47.612;7.610;2022-12-18T07:19:38;100066.91;;;-6.65;100.00
9307;BME280;4691;47.612;7.610;2022-12-18T07:22:03;100064.50;;;-6.45;100.00
9307;BME280;4691;47.612;7.610;2022-12-18T07:24:28;100060.94;;;-6.53;100.00
9307;BME280;4691;47.612;7.610;2022-12-18T07:26:53;100053.06;;;-6.63;100.00
9307;BME280;4691;47.612;7.610;2022-12-18T07:29:19;100060.19;;;-6.43;100.00
9307;BME280;4691;47.612;7.610;2022-12-18T07:31:44;100054.19;;;-6.39;100.00
9307;BME280;4691;47.612;7.610;2022-12-18T07:34:13;100055.91;;;-6.38;100.00
9307;BME280;4691;47.612;7.610;2022-12-18T07:36:40;100055.00;;;-6.43;100.00
9307;BME280;4691;47.612;7.610;2022-12-18T07:39:05;100055.91;;;-6.38;100.00
9307;BME280;4691;47.612;7.610;2022-12-18T07:41:30;100048.22;;;-6.26;100.00
9307;BME280;4691;47.612;7.610;2022-12-18T07:43:56;100036.03;;;-6.27;100.00
9307;BME280;4691;47.612;7.610;2022-12-18T07:46:21;100034.34;;;-6.25;100.00
9307;BME280;4691;47.612;7.610;2022-12-18T07:48:46;100027.50;;;-6.14;100.00
9307;BME280;4691;47.612;7.610;2022-12-18T07:51:12;100021.41;;;-6.14;100.00
9307;BME280;4691;47.612;7.610;2022-12-18T07:53:38;100016.28;;;-6.08;100.00
9307;BME280;4691;47.612;7.610;2022-12-18T07:56:09;100009.34;;;-6.01;100.00
9307;BME280;4691;47.612;7.610;2022-12-18T07:58:35;100005.06;;;-5.96;100.00
9307;BME280;4691;47.612;7.610;2022-12-18T08:01:05;99991.09;;;-6.04;100.00
9307;BME280;4691;47.612;7.610;2022-12-18T08:03:31;99979.03;;;-5.93;100.00
9307;BME280;4691;47.612;7.610;2022-12-18T08:06:04;99969.56;;;-5.80;100.00
9307;BME280;4691;47.612;7.610;2022-12-18T08:08:32;99952.22;;;-5.75;100.00
9307;BME280;4691;47.612;7.610;2022-12-18T08:10:58;99943.50;;;-5.79;100.00
9307;BME280;4691;47.612;7.610;2022-12-18T08:13:24;99926.19;;;-5.69;100.00
9307;BME280;4691;47.612;7.610;2022-12-18T08:16:03;99913.94;;;-5.82;100.00
9307;BME280;4691;47.612;7.610;2022-12-18T08:18:29;99901.91;;;-5.59;100.00
9307;BME280;4691;47.612;7.610;2022-12-18T08:20:55;99884.53;;;-5.60;100.00
9307;BME280;4691;47.612;7.610;2022-12-18T08:23:20;99802.91;;;-5.43;100.00
9307;BME280;4691;47.612;7.610;2022-12-18T08:25:46;99782.06;;;-5.47;100.00
9307;BME280;4691;47.612;7.610;2022-12-18T08:28:11;99769.03;;;-5.20;100.00
9307;BME280;4691;47.612;7.610;2022-12-18T08:30:37;99751.66;;;-5.25;100.00
9307;BME280;4691;47.612;7.610;2022-12-18T08:33:02;99721.25;;;-5.06;100.00
9307;BME280;4691;47.612;7.610;2022-12-18T08:35:27;99682.97;;;-4.97;100.00
9307;BME280;4691;47.612;7.610;2022-12-18T08:37:53;99651.66;;;-5.04;100.00
9307;BME280;4691;47.612;7.610;2022-12-18T08:40:18;99610.84;;;-5.25;100.00
9307;BME280;4691;47.612;7.610;2022-12-18T08:42:43;99609.09;;;-5.22;100.00
9307;BME280;4691;47.612;7.610;2022-12-18T08:45:27;99570.91;;;-5.42;100.00
9307;BME280;4691;47.612;7.610;2022-12-18T08:47:53;99555.25;;;-5.43;100.00
9307;BME280;4691;47.612;7.610;2022-12-18T08:50:19;99532.53;;;-4.97;100.00
9307;BME280;4691;47.612;7.610;2022-12-18T08:52:45;99509.78;;;-4.70;100.00
9307;BME280;4691;47.612;7.610;2022-12-18T08:55:10;99484.41;;;-4.44;100.00
9307;BME280;4691;47.612;7.610;2022-12-18T08:57:35;99480.13;;;-4.60;100.00
9307;BME280;4691;47.612;7.610;2022-12-18T09:00:01;99445.25;;;-4.50;100.00
9307;BME280;4691;47.612;7.610;2022-12-18T09:02:28;99422.69;;;-4.54;100.00
9307;BME280;4691;47.612;7.610;2022-12-18T09:04:53;99405.16;;;-4.40;100.00
9307;BME280;4691;47.612;7.610;2022-12-18T09:07:18;99372.00;;;-4.28;100.00
9307;BME280;4691;47.612;7.610;2022-12-18T09:09:44;99355.31;;;-4.13;100.00
9307;BME280;4691;47.612;7.610;2022-12-18T09:12:09;99326.50;;;-4.07;100.00
9307;BME280;4691;47.612;7.610;2022-12-18T09:14:35;99296.56;;;-3.77;100.00
9307;BME280;4691;47.612;7.610;2022-12-18T09:17:01;99259.53;;;-3.46;100.00
9307;BME280;4691;47.612;7.610;2022-12-18T09:19:26;99228.25;;;-2.98;100.00
9307;BME280;4691;47.612;7.610;2022-12-18T09:21:51;99182.06;;;-2.98;100.00
9307;BME280;4691;47.612;7.610;2022-12-18T09:24:17;99151.66;;;-2.60;100.00
9307;BME280;4691;47.612;7.610;2022-12-18T09:26:43;99110.72;;;-2.21;100.00
9307;BME280;4691;47.612;7.610;2022-12-18T09:29:08;99073.09;;;-1.81;100.00
9307;BME280;4691;47.612;7.610;2022-12-18T09:31:35;99039.09;;;-1.49;100.00
9307;BME280;4691;47.612;7.610;2022-12-18T09:34:00;98999.66;;;-1.12;100.00
9307;BME280;4691;47.612;7.610;2022-12-18T09:36:26;98967.94;;;-1.04;100.00
9307;BME280;4691;47.612;7.610;2022-12-18T09:38:51;98942.72;;;-0.80;100.00
9307;BME280;4691;47.612;7.610;2022-12-18T09:44:00;98860.63;;;0.45;100.00
9307;BME280;4691;47.612;7.610;2022-12-18T09:46:35;98851.25;;;0.84;100.00
9307;BME280;4691;47.612;7.610;2022-12-18T09:49:07;98883.91;;;1.48;100.00
9307;BME280;4691;47.612;7.610;2022-12-18T09:51:47;98938.09;;;1.77;100.00
9307;BME280;4691;47.612;7.610;2022-12-18T09:54:20;98957.25;;;2.86;100.00
9307;BME280;4691;47.612;7.610;2022-12-18T09:56:46;99066.31;;;2.68;100.00
9307;BME280;4691;47.612;7.610;2022-12-18T09:59:39;99233.78;;;3.69;100.00
9307;BME280;4691;47.612;7.610;2022-12-18T10:02:17;99359.91;;;3.46;100.00
9307;BME280;4691;47.612;7.610;2022-12-18T10:04:43;99435.50;;;3.74;100.00
9307;BME280;4691;47.612;7.610;2022-12-18T10:07:24;99515.22;;;3.65;100.00
9307;BME280;4691;47.612;7.610;2022-12-18T10:09:58;99552.22;;;3.88;100.00
9307;BME280;4691;47.612;7.610;2022-12-18T10:15:26;99594.03;;;3.79;100.00
9307;BME280;4691;47.612;7.610;2022-12-18T10:20:49;99626.72;;;4.67;100.00
9307;BME280;4691;47.612;7.610;2022-12-18T10:28:20;99613.19;;;3.62;100.00
9307;BME280;4691;47.612;7.610;2022-12-18T10:30:46;99580.47;;;3.64;100.00
9307;BME280;4691;47.612;7.610;2022-12-18T10:33:17;99577.31;;;3.78;100.00
9307;BME280;4691;47.612;7.610;2022-12-18T10:35:43;99585.88;;;3.61;100.00
9307;BME280;4691;47.612;7.610;2022-12-18T10:43:16;99657.34;;;4.74;100.00
9307;BME280;4691;47.612;7.610;2022-12-18T10:46:30;99637.34;;;5.30;100.00
9307;BME280;4691;47.612;7.610;2022-12-18T10:48:52;99640.41;;;5.81;100.00
9307;BME280;4691;47.612;7.610;2022-12-18T10:51:30;99647.88;;;5.52;100.00
9307;BME280;4691;47.612;7.610;2022-12-18T10:54:01;99627.91;;;3.92;100.00
9307;BME280;4691;47.612;7.610;2022-12-18T10:56:29;99599.94;;;5.16;100.00
9307;BME280;4691;47.612;7.610;2022-12-18T10:59:09;99612.22;;;4.55;100.00
9307;BME280;4691;47.612;7.610;2022-12-18T11:01:48;99575.41;;;4.90;100.00
9307;BME280;4691;47.612;7.610;2022-12-18T11:04:21;99579.41;;;3.70;100.00
9307;BME280;4691;47.612;7.610;2022-12-18T11:07:05;99560.53;;;3.56;100.00
9307;BME280;4691;47.612;7.610;2022-12-18T11:09:39;99553.50;;;4.87;100.00
9307;BME280;4691;47.612;7.610;2022-12-18T11:12:15;99537.03;;;4.15;100.00
9307;BME280;4691;47.612;7.610;2022-12-18T11:14:52;99554.06;;;4.08;100.00
9307;BME280;4691;47.612;7.610;2022-12-18T11:19:44;99533.63;;;4.34;100.00
9307;BME280;4691;47.612;7.610;2022-12-18T11:22:28;99515.88;;;3.93;100.00
9307;BME280;4691;47.612;7.610;2022-12-18T11:27:38;99511.56;;;3.22;100.00
9307;BME280;4691;47.612;7.610;2022-12-18T11:30:25;99502.72;;;4.34;100.00
9307;BME280;4691;47.612;7.610;2022-12-18T11:38:24;99582.91;;;6.00;100.00
9307;BME280;4691;47.612;7.610;2022-12-18T11:43:59;99598.56;;;5.07;100.00
9307;BME280;4691;47.612;7.610;2022-12-18T11:46:39;99591.16;;;6.13;100.00
9307;BME280;4691;47.612;7.610;2022-12-18T11:49:15;99613.25;;;6.14;100.00
9307;BME280;4691;47.612;7.610;2022-12-18T11:54:14;99631.00;;;6.32;100.00
9307;BME280;4691;47.612;7.610;2022-12-18T11:56:55;99629.56;;;4.85;100.00
9307;BME280;4691;47.612;7.610;2022-12-18T12:02:36;99610.63;;;5.14;100.00
9307;BME280;4691;47.612;7.610;2022-12-18T12:05:29;99608.66;;;5.19;100.00
9307;BME280;4691;47.612;7.610;2022-12-18T12:10:45;99567.88;;;4.39;100.00
9307;BME280;4691;47.612;7.610;2022-12-18T12:13:42;99534.84;;;4.03;100.00
9307;BME280;4691;47.612;7.610;2022-12-18T12:21:46;99464.81;;;3.46;100.00
9307;BME280;4691;47.612;7.610;2022-12-18T12:24:43;99452.41;;;3.48;100.00
9307;BME280;4691;47.612;7.610;2022-12-18T12:30:18;99397.72;;;2.56;100.00
9307;BME280;4691;47.612;7.610;2022-12-18T12:35:21;99364.94;;;3.09;100.00
9307;BME280;4691;47.612;7.610;2022-12-18T12:38:05;99363.34;;;2.81;100.00
9307;BME280;4691;47.612;7.610;2022-12-18T12:40:36;99356.13;;;2.63;100.00
9307;BME280;4691;47.612;7.610;2022-12-18T12:43:30;99346.94;;;2.95;100.00
9307;BME280;4691;47.612;7.610;2022-12-18T12:46:06;99347.81;;;2.48;100.00
9307;BME280;4691;47.612;7.610;2022-12-18T12:48:46;99349.44;;;2.52;100.00
9307;BME280;4691;47.612;7.610;2022-12-18T12:51:16;99349.31;;;3.02;100.00
9307;BME280;4691;47.612;7.610;2022-12-18T12:53:42;99349.72;;;2.92;100.00
9307;BME280;4691;47.612;7.610;2022-12-18T12:56:11;99358.91;;;2.81;100.00
9307;BME280;4691;47.612;7.610;2022-12-18T12:58:45;99373.09;;;2.79;100.00
9307;BME280;4691;47.612;7.610;2022-12-18T13:01:36;99377.41;;;2.81;100.00
9307;BME280;4691;47.612;7.610;2022-12-18T13:04:32;99380.09;;;2.80;100.00
9307;BME280;4691;47.612;7.610;2022-12-18T13:07:26;99371.84;;;2.40;100.00
9307;BME280;4691;47.612;7.610;2022-12-18T13:10:13;99351.16;;;2.77;100.00
9307;BME280;4691;47.612;7.610;2022-12-18T13:13:02;99354.59;;;2.79;100.00
9307;BME280;4691;47.612;7.610;2022-12-18T13:15:47;99358.50;;;2.69;100.00
9307;BME280;4691;47.612;7.610;2022-12-18T13:18:16;99366.31;;;2.72;100.00
9307;BME280;4691;47.612;7.610;2022-12-18T13:21:20;99367.25;;;2.71;100.00
9307;BME280;4691;47.612;7.610;2022-12-18T13:23:48;99364.63;;;3.16;100.00
9307;BME280;4691;47.612;7.610;2022-12-18T13:31:13;99370.00;;;2.68;100.00
9307;BME280;4691;47.612;7.610;2022-12-18T13:33:45;99371.03;;;2.87;100.00
9307;BME280;4691;47.612;7.610;2022-12-18T13:36:27;99360.97;;;2.97;100.00
9307;BME280;4691;47.612;7.610;2022-12-18T13:41:44;99355.88;;;2.69;100.00
9307;BME280;4691;47.612;7.610;2022-12-18T13:44:13;99353.34;;;2.42;100.00
9307;BME280;4691;47.612;7.610;2022-12-18T13:46:47;99334.75;;;2.45;100.00
9307;BME280;4691;47.612;7.610;2022-12-18T13:51:44;99340.72;;;2.25;100.00
9307;BME280;4691;47.612;7.610;2022-12-18T13:56:52;99336.69;;;2.40;100.00
9307;BME280;4691;47.612;7.610;2022-12-18T13:59:32;99331.97;;;2.48;100.00
9307;BME280;4691;47.612;7.610;2022-12-18T14:02:00;99336.66;;;2.65;100.00
9307;BME280;4691;47.612;7.610;2022-12-18T14:04:33;99343.81;;;2.61;100.00
9307;BME280;4691;47.612;7.610;2022-12-18T14:07:34;99352.63;;;3.08;100.00
9307;BME280;4691;47.612;7.610;2022-12-18T14:10:00;99368.38;;;3.77;100.00
9307;BME280;4691;47.612;7.610;2022-12-18T14:12:31;99402.63;;;4.22;100.00
9307;BME280;4691;47.612;7.610;2022-12-18T14:15:43;99431.41;;;4.09;100.00
9307;BME280;4691;47.612;7.610;2022-12-18T14:18:20;99456.94;;;4.10;100.00
9307;BME280;4691;47.612;7.610;2022-12-18T14:20:49;99467.09;;;3.55;100.00
9307;BME280;4691;47.612;7.610;2022-12-18T14:28:52;99450.03;;;4.69;100.00
9307;BME280;4691;47.612;7.610;2022-12-18T14:31:27;99477.69;;;4.42;100.00
9307;BME280;4691;47.612;7.610;2022-12-18T14:33:54;99475.00;;;4.21;100.00
9307;BME280;4691;47.612;7.610;2022-12-18T14:36:24;99500.38;;;3.61;100.00
9307;BME280;4691;47.612;7.610;2022-12-18T14:38:52;99489.91;;;2.87;100.00
9307;BME280;4691;47.612;7.610;2022-12-18T14:41:20;99454.66;;;3.35;100.00
9307;BME280;4691;47.612;7.610;2022-12-18T14:43:55;99438.81;;;2.88;100.00
9307;BME280;4691;47.612;7.610;2022-12-18T14:48:59;99394.91;;;2.10;100.00
9307;BME280;4691;47.612;7.610;2022-12-18T14:51:28;99381.44;;;1.93;100.00
9307;BME280;4691;47.612;7.610;2022-12-18T14:53:58;99352.25;;;1.72;100.00
9307;BME280;4691;47.612;7.610;2022-12-18T14:56:34;99342.28;;;1.54;100.00
9307;BME280;4691;47.612;7.610;2022-12-18T15:01:28;99316.06;;;1.23;100.00
9307;BME280;4691;47.612;7.610;2022-12-18T15:03:55;99300.81;;;1.33;100.00
9307;BME280;4691;47.612;7.610;2022-12-18T15:06:34;99285.13;;;1.29;100.00